Data for 09/26/2014

Time Sea-Level Adjusted Pressure Absolute Pressure Temperature Relative Humidity Dew Point Precipitation   
(mb) (inHg) (mb) (inHg) (C) (F) (%) (C) (F) (mm) (in)
00:05 1015 29.97 844 24.92 22.5 72.5 22 -0.1 31.8 0 0
00:10 1015 29.97 844 24.92 22.4 72.3 23 0.3 32.5 0 0
00:15 1015 29.97 844 24.92 23.4 74.2 19 -1.3 29.6 0 0
00:20 1015 29.97 844 24.92 23.7 74.6 23 1.4 34.5 0 0
00:25 1015 29.97 844 24.92 23.1 73.5 22 0.3 32.6 0 0
00:30 1015 29.97 844 24.92 23.2 73.7 22 0.5 32.8 0 0
00:35 1015 29.97 844 24.92 22.2 72 25 1.6 34.9 0 0
00:40 1015 29.97 844 24.92 20.9 69.7 24 0 32.1 0 0
00:45 1015 29.97 844 24.92 21.4 70.5 23 -0.6 31 0 0
00:50 1015 29.97 844 24.92 22.4 72.2 24 1.2 34.1 0 0
00:55 1015 29.97 844 24.92 21.2 70.1 26 1.3 34.3 0 0
01:00 1015 29.97 844 24.92 20.8 69.4 26 0.6 33.1 0 0
01:05 1015 29.97 844 24.92 21 69.8 25 0.2 32.4 0 0
01:10 1015 29.97 844 24.92 21.6 70.8 23 -0 31.9 0 0
01:15 1015 29.97 844 24.92 21.8 71.2 24 0.7 33.2 0 0
01:20 1015 29.97 844 24.92 21.6 70.9 23 0.1 32.1 0 0
01:25 1015 29.97 844 24.92 22.1 71.8 22 -0.6 31 0 0
01:30 1015 29.97 844 24.92 22.3 72.1 24 0.8 33.5 0 0
01:35 1015 29.97 844 24.92 21.5 70.7 25 0.7 33.2 0 0
01:40 1015 29.97 844 24.92 20.9 69.6 26 0.7 33.2 0 0
01:45 1015 29.97 844 24.92 20.8 69.5 24 -0.1 31.8 0 0
01:50 1015 29.97 844 24.92 21.4 70.4 24 0.1 32.2 0 0
01:55 1015 29.97 844 24.92 20.6 69.1 29 1.9 35.5 0 0
02:00 1015 29.97 844 24.92 18.5 65.4 31 1.4 34.5 0 0
02:05 1015 29.97 844 24.92 17.7 63.8 36 2.6 36.6 0 0
02:10 1015 29.97 844 24.92 16 60.7 41 2.7 36.8 0 0
02:15 1015 29.97 844 24.92 15.1 59.2 37 0.7 33.3 0 0
02:20 1015 29.97 844 24.92 16 60.9 38 1.9 35.4 0 0
02:25 1015 29.97 844 24.92 15.3 59.5 42 2.7 36.8 0 0
02:30 1015 29.97 844 24.92 14.6 58.2 44 2.6 36.6 0 0
02:35 1015 29.97 844 24.92 14.6 58.3 41 1.4 34.6 0 0
02:40 1015 29.97 844 24.92 15.1 59.1 39 1.2 34.1 0 0
02:45 1015 29.97 844 24.92 15.2 59.4 42 2.5 36.5 0 0
02:50 1015 29.97 844 24.92 14.6 58.4 41 1.7 35.1 0 0
02:55 1015 29.97 844 24.92 14.5 58.1 44 2.4 36.2 0 0
03:00 1015 29.97 844 24.92 14.3 57.7 44 2.3 36.1 0 0
03:05 1015 29.97 844 24.92 14 57.3 45 2.3 36.1 0 0
03:10 1015 29.97 844 24.92 14.1 57.4 45 2.4 36.2 0 0
03:15 1015 29.97 844 24.92 14.1 57.4 46 2.6 36.7 0 0
03:20 1015 29.97 844 24.92 13.6 56.6 46 2.4 36.2 0 0
03:25 1015 29.97 844 24.92 13.8 56.9 45 2 35.7 0 0
03:30 1015 29.97 845 24.95 13.6 56.4 45 2 35.5 0 0
03:35 1015 29.97 845 24.95 14.6 58.2 40 1.3 34.4 0 0
03:40 1015 29.97 845 24.95 16.9 62.5 36 1.9 35.5 0 0
03:45 1015 29.97 845 24.95 16.2 61.1 38 2.1 35.7 0 0
03:50 1015 29.97 845 24.95 15.9 60.7 41 2.7 36.8 0 0
03:55 1015 29.97 845 24.95 15.5 59.9 43 3 37.3 0 0
04:00 1015 29.97 845 24.95 14.9 58.8 41 1.9 35.4 0 0
04:05 1015 29.97 845 24.95 15.4 59.6 42 2.5 36.5 0 0
04:10 1015 29.97 845 24.95 15.1 59.1 42 2.4 36.2 0 0
04:15 1015 29.97 845 24.95 15.3 59.6 42 2.7 36.8 0 0
04:20 1015 29.97 845 24.95 15.2 59.3 43 2.6 36.7 0 0
04:25 1016 30 845 24.95 14.7 58.4 45 2.9 37.3 0 0
04:30 1016 30 845 24.95 14.2 57.6 47 3.1 37.5 0 0
04:35 1016 30 845 24.95 14.1 57.3 45 2.3 36.1 0 0
04:40 1016 30 845 24.95 14.4 57.8 48 3.4 38.2 0 0
04:45 1016 30 845 24.95 13.7 56.7 49 3.2 37.7 0 0
04:50 1016 30 845 24.95 13.8 56.8 49 3.3 38 0 0
04:55 1016 30 845 24.95 13.7 56.7 49 3.3 38 0 0
05:00 1016 30 845 24.95 13.5 56.3 48 2.9 37.2 0 0
05:05 1016 30 845 24.95 13.9 56.9 50 3.6 38.5 0 0
05:10 1016 30 845 24.95 13.9 57.1 48 3.1 37.6 0 0
05:15 1016 30 845 24.95 13.7 56.6 53 4.2 39.6 0 0
05:20 1016 30 845 24.95 13.4 56.1 50 3.3 38 0 0
05:25 1016 30 845 24.95 13.4 56.1 52 3.8 38.8 0 0
05:30 1016 30 845 24.95 13.3 56 51 3.6 38.5 0 0
05:35 1016 30 845 24.95 13.3 55.9 54 4.3 39.7 0 0
05:40 1016 30 845 24.95 12.9 55.2 60 5.4 41.7 0 0
05:45 1016 30 846 24.98 12.5 54.5 58 4.6 40.3 0 0
05:50 1016 30 846 24.98 13.8 56.8 43 1.4 34.5 0 0
05:55 1017 30.03 846 24.98 16.9 62.3 37 2.1 35.7 0 0
06:00 1017 30.03 846 24.98 17.5 63.5 38 3.1 37.6 0 0
06:05 1017 30.03 846 24.98 17.3 63.1 37 2.6 36.6 0 0
06:10 1017 30.03 846 24.98 17.2 62.9 39 3.2 37.8 0 0
06:15 1017 30.03 846 24.98 16.8 62.2 41 3.5 38.3 0 0
06:20 1017 30.03 846 24.98 16.6 61.9 37 2.1 35.8 0 0
06:25 1017 30.03 846 24.98 17.5 63.5 36 2.3 36.2 0 0
06:30 1017 30.03 846 24.98 17.8 64 36 2.7 36.8 0 0
06:35 1017 30.03 846 24.98 17.7 63.9 37 3 37.4 0 0
06:40 1017 30.03 846 24.98 17 62.5 41 3.8 38.9 0 0
06:45 1017 30.03 846 24.98 16.2 61.2 42 3.5 38.4 0 0
06:50 1017 30.03 846 24.98 16.1 61 41 3 37.3 0 0
06:55 1017 30.03 846 24.98 16 60.7 42 3.3 37.9 0 0
07:00 1017 30.03 846 24.98 15.8 60.4 43 3.2 37.8 0 0
07:05 1017 30.03 846 24.98 15.7 60.2 43 3.4 38.1 0 0
07:10 1017 30.03 846 24.98 15.9 60.5 40 2.5 36.5 0 0
07:15 1017 30.03 846 24.98 16.3 61.3 41 3.2 37.8 0 0
07:20 1017 30.03 846 24.98 15.9 60.5 43 3.4 38 0 0
07:25 1017 30.03 847 25.01 15.8 60.5 42 3 37.4 0 0
07:30 1017 30.03 847 25.01 15.6 60 50 5.3 41.5 0 0
07:35 1017 30.03 847 25.01 15.4 59.6 40 1.8 35.2 0 0
07:40 1017 30.03 847 25.01 16.2 61.2 51 6 42.9 0 0
07:45 1018 30.06 847 25.01 15.1 59.3 55 6.4 43.5 0 0
07:50 1018 30.06 847 25.01 14.5 58 59 6.5 43.7 0 0
07:55 1018 30.06 847 25.01 14.1 57.4 59 6.3 43.3 0 0
08:00 1018 30.06 847 25.01 14.1 57.3 61 6.7 44.1 0 0
08:05 1018 30.06 847 25.01 14.2 57.5 62 7.1 44.8 0 0
08:10 1018 30.06 847 25.01 14.3 57.8 59 6.6 43.8 0 0
08:15 1018 30.06 847 25.01 14.5 58.1 60 6.8 44.3 0 0
08:20 1018 30.06 847 25.01 14.7 58.4 62 7.5 45.5 0 0
08:25 1018 30.06 847 25.01 15 59 59 7.2 45 0 0
08:30 1018 30.06 847 25.01 15.2 59.3 59 7.4 45.4 0 0
08:35 1018 30.06 847 25.01 15.7 60.3 61 8.3 47 0 0
08:40 1018 30.06 847 25.01 16.1 60.9 56 7.5 45.5 0 0
08:45 1018 30.06 847 25.01 16.5 61.7 54 7.2 44.9 0 0
08:50 1018 30.06 848 25.04 16.2 61.2 59 8.2 46.8 0 0
08:55 1018 30.06 848 25.04 15.7 60.3 62 8.4 47.2 0 0
09:00 1018 30.06 848 25.04 15.3 59.5 62 8.2 46.7 0 0
09:05 1018 30.06 848 25.04 15.2 59.4 60 7.7 45.8 0 0
09:10 1019 30.09 848 25.04 15.3 59.5 58 7.2 45 0 0
09:15 1018 30.06 848 25.04 15.7 60.2 53 6.3 43.3 0 0
09:20 1018 30.06 848 25.04 16.4 61.5 54 7.2 44.9 0 0
09:25 1019 30.09 848 25.04 17 62.5 52 7.1 44.9 0 0
09:30 1019 30.09 848 25.04 17.4 63.4 49 6.7 44 0 0
09:35 1019 30.09 848 25.04 17.8 64 47 6.4 43.6 0 0
09:40 1019 30.09 848 25.04 18.4 65.2 44 6.1 43 0 0
09:45 1019 30.09 848 25.04 18.8 65.9 43 6.2 43.1 0 0
09:50 1019 30.09 848 25.04 18.7 65.7 47 7.2 44.9 0 0
09:55 1019 30.09 848 25.04 18.1 64.6 48 6.9 44.5 0 0
10:00 1019 30.09 848 25.04 17.7 63.9 49 7 44.6 0 0
10:05 1019 30.09 848 25.04 16.4 61.4 55 7.3 45.2 0 0
10:10 1019 30.09 848 25.04 15.6 60.1 56 6.9 44.3 0 0
10:15 1019 30.09 849 25.07 15.3 59.6 56 6.8 44.2 0 0
10:20 1020 30.12 849 25.07 15.6 60 53 6.2 43.2 0 0
10:25 1020 30.12 849 25.07 15.5 59.8 56 6.8 44.3 0 0
10:30 1019 30.09 848 25.04 15.6 60.1 55 6.7 44.1 0 0
10:35 1019 30.09 848 25.04 16.2 61.2 52 6.4 43.6 0 0
10:40 1019 30.09 848 25.04 17 62.6 52 7.2 44.9 0 0
10:45 1019 30.09 848 25.04 17.4 63.2 51 7.2 44.9 0 0
10:50 1019 30.09 848 25.04 17.5 63.5 48 6.5 43.7 0 0
10:55 1019 30.09 848 25.04 17.7 63.9 45 5.7 42.2 0 0
11:00 1019 30.09 848 25.04 18.1 64.6 49 7.4 45.3 0 0
11:05 1019 30.09 848 25.04 18.6 65.4 41 5.3 41.5 0 0
11:10 1019 30.09 848 25.04 18.3 65 49 7.5 45.5 0 0
11:15 1019 30.09 848 25.04 18.6 65.5 48 7.4 45.3 0 0
11:20 1019 30.09 848 25.04 18.5 65.2 46 6.8 44.2 0 0
11:25 1019 30.09 848 25.04 18.8 65.9 47 7.4 45.4 0 0
11:30 1019 30.09 848 25.04 18.9 66.1 53 9.3 48.7 0 0
11:35 1019 30.09 848 25.04 19.3 66.7 46 7.4 45.4 0 0
11:40 1019 30.09 848 25.04 19.5 67.1 43 6.7 44 0 0
11:45 1019 30.09 849 25.07 19.6 67.2 43 6.8 44.3 0 0
11:50 1019 30.09 849 25.07 19.1 66.4 45 7 44.7 0 0
11:55 1019 30.09 849 25.07 19.7 67.4 45 7.5 45.6 0 0
12:00 1019 30.09 849 25.07 19.5 67 45 7.3 45.2 0 0
12:05 1019 30.09 849 25.07 19.3 66.7 46 7.7 45.8 0 0
12:10 1019 30.09 848 25.04 19.2 66.6 46 7.6 45.7 0 0
12:15 1019 30.09 849 25.07 19.5 67.1 47 7.9 46.3 0 0
12:20 1019 30.09 848 25.04 19.3 66.7 45 7.1 44.7 0 0
12:25 1019 30.09 849 25.07 19.8 67.6 43 6.8 44.3 0 0
12:30 1019 30.09 849 25.07 19.8 67.6 50 9.2 48.6 0 0
12:35 1019 30.09 848 25.04 19.5 67.1 48 8.3 46.9 0 0
12:40 1019 30.09 849 25.07 19.2 66.5 45 7 44.6 0 0
12:45 1019 30.09 849 25.07 19.1 66.3 47 7.7 45.9 0 0
12:50 1019 30.09 849 25.07 19.6 67.3 41 6.2 43.2 0 0
12:55 1019 30.09 849 25.07 19.6 67.2 41 6.1 43 0 0
13:00 1019 30.09 849 25.07 19.4 66.9 45 7.3 45.1 0 0
13:05 1019 30.09 849 25.07 19.2 66.6 47 7.8 46 0 0
13:10 1019 30.09 849 25.07 19.5 67.1 44 7 44.5 0 0
13:15 1019 30.09 849 25.07 20 67.9 47 8.5 47.3 0 0
13:20 1019 30.09 849 25.07 19.9 67.9 43 7.2 44.9 0 0
13:25 1019 30.09 849 25.07 20.2 68.3 48 9.1 48.4 0 0
13:30 1019 30.09 849 25.07 20.3 68.5 41 6.7 44.1 0 0
13:35 1019 30.09 849 25.07 20.2 68.4 44 7.8 46 0 0
13:40 1019 30.09 848 25.04 20.1 68.1 46 8.2 46.8 0 0
13:45 1019 30.09 848 25.04 19.4 66.9 43 6.8 44.2 0 0
13:50 1019 30.09 848 25.04 19.9 67.9 43 7.2 45 0 0
13:55 1019 30.09 848 25.04 20.4 68.7 39 6.1 43 0 0
14:00 1019 30.09 848 25.04 20 68 46 8.2 46.7 0 0
14:05 1019 30.09 848 25.04 20.2 68.3 42 7 44.6 0 0
14:10 1019 30.09 848 25.04 20.8 69.5 40 6.8 44.2 0 0
14:15 1019 30.09 848 25.04 21.2 70.2 37 6 42.9 0 0
14:20 1019 30.09 848 25.04 21.1 69.9 42 7.8 46.1 0 0
14:25 1019 30.09 849 25.07 20.5 68.8 43 7.7 45.9 0 0
14:30 1019 30.09 848 25.04 20.6 69 42 7.4 45.3 0 0
14:35 1019 30.09 848 25.04 20.9 69.5 44 8.2 46.7 0 0
14:40 1019 30.09 848 25.04 21 69.8 40 7.2 45 0 0
14:45 1019 30.09 848 25.04 21.2 70.1 42 7.8 46 0 0
14:50 1019 30.09 848 25.04 21 69.9 44 8.5 47.4 0 0
14:55 1019 30.09 848 25.04 21 69.7 41 7.4 45.4 0 0
15:00 1019 30.09 848 25.04 21.1 69.9 43 8.2 46.8 0 0
15:05 1019 30.09 848 25.04 21 69.9 42 7.8 46.1 0 0
15:10 1019 30.09 848 25.04 21.1 70 42 7.8 46 0 0
15:15 1019 30.09 848 25.04 21 69.9 42 7.6 45.7 0 0
15:20 1019 30.09 848 25.04 21.2 70.1 43 8.2 46.8 0 0
15:25 1019 30.09 848 25.04 21.3 70.4 43 8.3 46.9 0 0
15:30 1019 30.09 848 25.04 21.3 70.3 42 8 46.5 0 0
15:35 1019 30.09 848 25.04 21.1 70 45 8.8 47.9 0 0
15:40 1019 30.09 848 25.04 20.5 69 47 8.9 48 0 0
15:45 1019 30.09 848 25.04 19.5 67.1 50 8.9 48 0 0
15:50 1019 30.09 848 25.04 18.7 65.6 55 9.5 49.2 0 0
15:55 1019 30.09 848 25.04 18.5 65.2 51 8.4 47.1 0 0
16:00 1019 30.09 849 25.07 18.6 65.4 53 8.9 48 0 0
16:05 1020 30.12 849 25.07 18.7 65.6 52 8.7 47.6 0 0
16:10 1019 30.09 849 25.07 18.7 65.7 54 9.2 48.6 0 0
16:15 1019 30.09 849 25.07 18.4 65.1 56 9.5 49.1 0 0
16:20 1019 30.09 848 25.04 19.4 66.8 48 8.2 46.7 0 0
16:25 1019 30.09 848 25.04 20.3 68.5 47 8.9 48 0 0
16:30 1019 30.09 848 25.04 20.1 68.2 47 8.6 47.5 0 0
16:35 1019 30.09 848 25.04 19.1 66.4 53 9.5 49.1 0 0
16:40 1019 30.09 848 25.04 18.5 65.2 50 8 46.4 0 0
16:45 1019 30.09 848 25.04 18.5 65.3 54 9.2 48.5 0 0
16:50 1019 30.09 848 25.04 18.2 64.8 57 9.6 49.4 0 0
16:55 1019 30.09 848 25.04 17.7 63.9 58 9.4 48.9 0 0
17:00 1019 30.09 849 25.07 17.5 63.5 60 9.8 49.7 0 0
17:05 1020 30.12 849 25.07 17 62.6 63 9.9 49.9 0 0
17:10 1020 30.12 849 25.07 16.8 62.2 68 10.8 51.5 0 0
17:15 1020 30.12 849 25.07 16 60.8 74 11.5 52.6 .2 0.008
17:20 1020 30.12 849 25.07 15.8 60.5 76 11.7 53.1 0 0
17:25 1020 30.12 849 25.07 16.5 61.7 74 11.8 53.2 0 0
17:30 1020 30.12 849 25.07 17.6 63.8 61 10.2 50.4 0 0
17:35 1020 30.12 849 25.07 18.3 64.9 63 11.1 52 0 0
17:40 1020 30.12 849 25.07 18.5 65.3 60 10.8 51.5 0 0
17:45 1020 30.12 849 25.07 18.8 65.8 63 11.8 53.2 0 0
17:50 1020 30.12 849 25.07 18.8 65.8 64 11.8 53.3 0 0
17:55 1020 30.12 849 25.07 18.8 65.8 62 11.5 52.6 0 0
18:00 1020 30.12 849 25.07 18.5 65.2 63 11.3 52.4 0 0
18:05 1020 30.12 849 25.07 18.2 64.8 65 11.7 53 0 0
18:10 1020 30.12 849 25.07 17.3 63.2 67 11.3 52.4 0 0
18:15 1020 30.12 849 25.07 16.6 61.9 69 11 51.8 0 0
18:20 1020 30.12 849 25.07 16.2 61.1 70 10.8 51.4 0 0
18:25 1020 30.12 849 25.07 15.5 59.9 72 10.4 50.8 0 0
18:30 1020 30.12 849 25.07 14.9 58.9 73 10.1 50.2 0 0
18:35 1020 30.12 849 25.07 14.8 58.7 71 9.6 49.4 0 0
18:40 1020 30.12 849 25.07 14.9 58.8 73 10.1 50.1 0 0
18:45 1020 30.12 849 25.07 14.5 58 77 10.4 50.8 0 0
18:50 1020 30.12 849 25.07 13.8 56.9 80 10.4 50.8 0 0
18:55 1020 30.12 849 25.07 13.7 56.7 78 10 50 0 0
19:00 1020 30.12 849 25.07 14.2 57.5 78 10.4 50.7 0 0
19:05 1020 30.12 849 25.07 14.2 57.6 80 10.8 51.4 0 0
19:10 1020 30.12 849 25.07 14.1 57.3 80 10.7 51.2 0 0
19:15 1020 30.12 849 25.07 14.2 57.6 74 9.8 49.6 0 0
19:20 1020 30.12 849 25.07 14.9 58.8 70 9.5 49.1 0 0
19:25 1020 30.12 849 25.07 15 59 73 10.2 50.3 0 0
19:30 1020 30.12 849 25.07 14.5 58 76 10.2 50.4 0 0
19:35 1020 30.12 849 25.07 13.4 56.1 82 10.5 50.8 0 0
19:40 1020 30.12 849 25.07 12.7 54.8 83 9.9 49.7 0 0
19:45 1020 30.12 849 25.07 12.7 54.8 82 9.6 49.4 0 0
19:50 1020 30.12 849 25.07 12.5 54.4 83 9.7 49.5 0 0
19:55 1020 30.12 849 25.07 11.7 53 86 9.5 49.1 0 0
20:00 1020 30.12 849 25.07 11.4 52.5 87 9.2 48.6 0 0
20:05 1020 30.12 849 25.07 11.3 52.4 86 9.1 48.3 0 0
20:10 1020 30.12 849 25.07 11.2 52.2 86 8.9 48.1 0 0
20:15 1020 30.12 849 25.07 10.8 51.5 88 8.9 48 0 0
20:20 1020 30.12 849 25.07 10.9 51.6 87 8.9 48 0 0
20:25 1020 30.12 850 25.1 10.8 51.4 87 8.8 47.8 0 0
20:30 1020 30.12 850 25.1 11.2 52.1 86 8.9 48 0 0
20:35 1020 30.12 850 25.1 11.4 52.4 84 8.7 47.7 0 0
20:40 1021 30.15 850 25.1 11.8 53.2 83 9 48.1 0 0
20:45 1021 30.15 850 25.1 11.6 52.9 85 9.1 48.4 0 0
20:50 1021 30.15 850 25.1 11.7 53.1 84 9.2 48.5 0 0
20:55 1021 30.15 850 25.1 12.1 53.7 81 8.9 48 0 0
21:00 1021 30.15 850 25.1 13 55.4 78 9.3 48.7 0 0
21:05 1021 30.15 850 25.1 13.3 55.9 76 9.1 48.4 0 0
21:10 1021 30.15 850 25.1 13.3 55.9 77 9.4 48.9 0 0
21:15 1021 30.15 850 25.1 13.2 55.8 77 9.3 48.8 0 0
21:20 1021 30.15 850 25.1 13.3 55.9 77 9.3 48.7 0 0
21:25 1021 30.15 850 25.1 13.3 56 77 9.3 48.8 0 0
21:30 1021 30.15 850 25.1 13.3 56 77 9.5 49.1 0 0
21:35 1021 30.15 850 25.1 13 55.4 81 9.9 49.9 0 0
21:40 1020 30.12 850 25.1 12.7 54.9 81 9.6 49.3 0 0
21:45 1021 30.15 850 25.1 12.6 54.7 83 9.9 49.8 0 0
21:50 1021 30.15 850 25.1 12.5 54.5 82 9.6 49.3 0 0
21:55 1021 30.15 850 25.1 12.7 54.8 81 9.6 49.3 0 0
22:00 1021 30.15 850 25.1 12.6 54.7 86 10.3 50.5 .6 0.024
22:05 1021 30.15 850 25.1 12.2 54 85 9.7 49.5 0 0
22:10 1021 30.15 850 25.1 12.4 54.2 83 9.6 49.4 .2 0.008
22:15 1021 30.15 850 25.1 12.5 54.5 83 9.7 49.4 0 0
22:20 1021 30.15 850 25.1 12.7 54.9 79 9.2 48.6 0 0
22:25 1021 30.15 851 25.13 12.8 55 79 9.3 48.8 0 0
22:30 1021 30.15 851 25.13 12.5 54.6 79 9.1 48.3 0 0
22:35 1022 30.18 851 25.13 12.5 54.5 77 8.7 47.6 0 0
22:40 1022 30.18 851 25.13 12.7 54.8 79 9.1 48.4 0 0
22:45 1022 30.18 851 25.13 12.6 54.8 80 9.4 48.9 0 0
22:50 1022 30.18 851 25.13 12.7 54.9 81 9.5 49.2 0 0
22:55 1022 30.18 851 25.13 12.6 54.6 80 9.3 48.7 0 0
23:00 1022 30.18 851 25.13 12.5 54.5 80 9.1 48.4 0 0
23:05 1022 30.18 851 25.13 12.3 54.1 83 9.4 48.9 0 0
23:10 1022 30.18 851 25.13 11.7 53.1 84 9.2 48.6 .4 0.016
23:15 1022 30.18 851 25.13 11.3 52.3 86 9 48.3 0 0
23:20 1022 30.18 851 25.13 11.1 51.9 87 9 48.2 0 0
23:25 1022 30.18 851 25.13 10.9 51.6 88 9 48.2 0 0
23:30 1022 30.18 851 25.13 10.8 51.4 89 9 48.1 0 0
23:35 1022 30.18 851 25.13 10.8 51.4 89 9 48.2 0 0
23:40 1022 30.18 852 25.16 10.8 51.4 90 9.1 48.5 0 0
23:45 1022 30.18 852 25.16 10.7 51.3 90 9.1 48.4 0 0
23:50 1023 30.21 852 25.16 10.8 51.4 90 9.2 48.6 0 0
23:55 1023 30.21 852 25.16 10.8 51.5 91 9.5 49.1 0 0
24:00 1023 30.21 852 25.16 10.9 51.6 90 9.3 48.8 0 0